Time;durP1;ratioP1;P1;durP2;ratioP2;P2;SDS_P1;SDS_P2;PMS_P1;PMS_P2;Temp;Humidity;BMP_temperature;BMP_pressure;BME280_temperature;BME280_humidity;BME280_pressure;Samples;Min_cycle;Max_cycle;Signal;HPM_P1;HPM_P2
2024/01/29 00:01:23;;;;;;;;;;;1.70;100.00;;;;;;5043989;28;20018;-68
2024/01/29 00:03:50;;;;;;;;;;;1.70;100.00;;;;;;5045758;28;20033;-68
2024/01/29 00:06:17;;;;;;;;;;;1.70;100.00;;;;;;5043060;28;19925;-68
2024/01/29 00:08:44;;;;;;;;;;;1.70;100.00;;;;;;5043495;28;20099;-68
2024/01/29 00:11:11;;;;;;;;;;;1.80;100.00;;;;;;5044978;28;20010;-68
2024/01/29 00:13:38;;;;;;;;;;;1.80;100.00;;;;;;5044243;28;20013;-68
2024/01/29 00:16:05;;;;;;;;;;;1.80;100.00;;;;;;5044356;28;19933;-68
2024/01/29 00:18:32;;;;;;;;;;;1.80;100.00;;;;;;5045921;28;20368;-68
2024/01/29 00:20:59;;;;;;;;;;;1.80;100.00;;;;;;5047908;28;20411;-68
2024/01/29 00:23:26;;;;;;;;;;;1.80;100.00;;;;;;5045060;28;20728;-68
2024/01/29 00:25:53;;;;;;;;;;;1.80;100.00;;;;;;5046016;28;19936;-68
2024/01/29 00:28:19;;;;;;;;;;;1.80;100.00;;;;;;5043642;28;19998;-68
2024/01/29 00:30:46;;;;;;;;;;;1.80;100.00;;;;;;5045102;28;19972;-68
2024/01/29 00:33:13;;;;;;;;;;;1.80;100.00;;;;;;5045050;28;19935;-68
2024/01/29 00:35:40;;;;;;;;;;;1.80;100.00;;;;;;5045223;28;19928;-68
2024/01/29 00:38:07;;;;;;;;;;;1.80;100.00;;;;;;5045262;28;19929;-68
2024/01/29 00:40:33;;;;;;;;;;;1.90;100.00;;;;;;5044713;28;20325;-68
2024/01/29 00:43:00;;;;;;;;;;;1.80;100.00;;;;;;5038195;28;19944;-68
2024/01/29 00:45:27;;;;;;;;;;;1.80;100.00;;;;;;5042696;28;19967;-68
2024/01/29 00:47:54;;;;;;;;;;;1.80;100.00;;;;;;5079674;28;19928;-68
2024/01/29 00:50:21;;;;;;;;;;;1.80;100.00;;;;;;5048147;28;19937;-68
2024/01/29 00:52:48;;;;;;;;;;;1.80;100.00;;;;;;5049045;28;19929;-68
2024/01/29 00:55:15;;;;;;;;;;;1.80;100.00;;;;;;5048510;28;19928;-68
2024/01/29 00:57:42;;;;;;;;;;;1.80;100.00;;;;;;5041709;28;19975;-68
2024/01/29 01:00:12;;;;;;;;;;;1.90;100.00;;;;;;5048953;28;19967;-68
2024/01/29 01:02:39;;;;;;;;;;;1.90;100.00;;;;;;5048179;28;20044;-67
2024/01/29 01:05:06;;;;;;;;;;;1.80;100.00;;;;;;5048889;28;19929;-68
2024/01/29 01:07:33;;;;;;;;;;;1.80;100.00;;;;;;5047327;28;19944;-68
2024/01/29 01:10:00;;;;;;;;;;;1.80;100.00;;;;;;5048161;28;19990;-67
2024/01/29 01:12:27;;;;;;;;;;;1.80;100.00;;;;;;5048324;28;19975;-67
2024/01/29 01:14:54;;;;;;;;;;;1.80;100.00;;;;;;5048297;28;20395;-68
2024/01/29 01:17:21;;;;;;;;;;;1.80;100.00;;;;;;5048083;28;20344;-68
2024/01/29 01:19:48;;;;;;;;;;;1.70;100.00;;;;;;5044807;28;19929;-68
2024/01/29 01:22:15;;;;;;;;;;;1.70;100.00;;;;;;5047180;28;20479;-68
2024/01/29 01:24:42;;;;;;;;;;;1.70;100.00;;;;;;5047034;28;19982;-70
2024/01/29 01:27:10;;;;;;;;;;;1.70;100.00;;;;;;5048157;28;19929;-70
2024/01/29 01:29:36;;;;;;;;;;;1.70;100.00;;;;;;5045120;28;19999;-70
2024/01/29 01:32:03;;;;;;;;;;;1.70;100.00;;;;;;5048260;28;19932;-68
2024/01/29 01:34:30;;;;;;;;;;;1.70;100.00;;;;;;5047051;28;19994;-68
2024/01/29 01:36:57;;;;;;;;;;;1.70;100.00;;;;;;5047933;28;19924;-67
2024/01/29 01:39:24;;;;;;;;;;;1.70;100.00;;;;;;5048124;28;19994;-68
2024/01/29 01:41:51;;;;;;;;;;;1.60;100.00;;;;;;5048600;28;19931;-67
2024/01/29 01:44:17;;;;;;;;;;;1.60;100.00;;;;;;5045857;28;19932;-67
2024/01/29 01:46:45;;;;;;;;;;;1.60;100.00;;;;;;5044600;28;20049;-68
2024/01/29 01:49:12;;;;;;;;;;;1.60;100.00;;;;;;5047993;28;19940;-68
2024/01/29 01:51:39;;;;;;;;;;;1.50;100.00;;;;;;5042429;28;19929;-68
2024/01/29 01:54:07;;;;;;;;;;;1.50;100.00;;;;;;5047144;28;20032;-68
2024/01/29 01:56:34;;;;;;;;;;;1.60;100.00;;;;;;5047143;28;19933;-67
2024/01/29 01:59:03;;;;;;;;;;;1.50;100.00;;;;;;5047217;28;20783;-67
2024/01/29 02:01:30;;;;;;;;;;;1.50;100.00;;;;;;5074644;28;19967;-68
2024/01/29 02:03:58;;;;;;;;;;;1.40;100.00;;;;;;5046454;28;19990;-68
2024/01/29 02:06:25;;;;;;;;;;;1.40;100.00;;;;;;5060435;28;19929;-68
2024/01/29 02:08:52;;;;;;;;;;;1.40;100.00;;;;;;5047998;28;20020;-67
2024/01/29 02:11:19;;;;;;;;;;;1.40;100.00;;;;;;5048136;28;19932;-67
2024/01/29 02:13:45;;;;;;;;;;;1.50;100.00;;;;;;5042270;28;19937;-68
2024/01/29 02:16:12;;;;;;;;;;;1.50;100.00;;;;;;5045269;28;19987;-67
2024/01/29 02:18:39;;;;;;;;;;;1.50;100.00;;;;;;5047064;28;19929;-67
2024/01/29 02:21:06;;;;;;;;;;;1.40;100.00;;;;;;5042749;28;19928;-68
2024/01/29 02:23:33;;;;;;;;;;;1.50;100.00;;;;;;5046833;28;19936;-67
2024/01/29 02:26:00;;;;;;;;;;;1.50;100.00;;;;;;5047323;28;20032;-67
2024/01/29 02:28:27;;;;;;;;;;;1.50;100.00;;;;;;5046711;28;20284;-67
2024/01/29 02:30:54;;;;;;;;;;;1.40;100.00;;;;;;5046940;28;19933;-68
2024/01/29 02:33:22;;;;;;;;;;;1.40;100.00;;;;;;5045901;28;19929;-67
2024/01/29 02:35:49;;;;;;;;;;;1.40;100.00;;;;;;5047706;28;19936;-68
2024/01/29 02:38:15;;;;;;;;;;;1.30;100.00;;;;;;5046900;28;19924;-68
2024/01/29 02:40:42;;;;;;;;;;;1.30;100.00;;;;;;5043828;28;19928;-68
2024/01/29 02:43:09;;;;;;;;;;;1.20;100.00;;;;;;5045429;28;20429;-68
2024/01/29 02:45:36;;;;;;;;;;;1.20;100.00;;;;;;5047527;28;20759;-67
2024/01/29 02:48:03;;;;;;;;;;;1.10;100.00;;;;;;5047147;28;19936;-68
2024/01/29 02:50:30;;;;;;;;;;;1.20;100.00;;;;;;5046747;28;19924;-68
2024/01/29 02:53:00;;;;;;;;;;;1.10;100.00;;;;;;5044578;28;19940;-68
2024/01/29 02:55:27;;;;;;;;;;;1.10;100.00;;;;;;5046679;28;19928;-68
2024/01/29 02:57:54;;;;;;;;;;;1.10;100.00;;;;;;5046517;28;19939;-69
2024/01/29 03:00:20;;;;;;;;;;;1.10;100.00;;;;;;5045427;28;20016;-68
2024/01/29 03:02:47;;;;;;;;;;;1.10;100.00;;;;;;5046835;28;19943;-70
2024/01/29 03:05:14;;;;;;;;;;;1.10;100.00;;;;;;5046830;28;19937;-68
2024/01/29 03:07:41;;;;;;;;;;;1.10;100.00;;;;;;5046348;28;19956;-68
2024/01/29 03:10:08;;;;;;;;;;;1.10;100.00;;;;;;5044507;28;20484;-68
2024/01/29 03:12:35;;;;;;;;;;;1.10;100.00;;;;;;5046332;28;19935;-68
2024/01/29 03:15:02;;;;;;;;;;;1.10;100.00;;;;;;5046906;28;19929;-68
2024/01/29 03:17:32;;;;;;;;;;;1.10;100.00;;;;;;5046311;28;19971;-68
2024/01/29 03:19:58;;;;;;;;;;;1.10;100.00;;;;;;5043534;28;19979;-68
2024/01/29 03:22:26;;;;;;;;;;;1.10;100.00;;;;;;5045820;28;20043;-68
2024/01/29 03:24:52;;;;;;;;;;;1.10;100.00;;;;;;5045976;28;19976;-68
2024/01/29 03:27:19;;;;;;;;;;;1.10;100.00;;;;;;5039602;28;19928;-68
2024/01/29 03:29:46;;;;;;;;;;;1.20;100.00;;;;;;5046585;28;19987;-68
2024/01/29 03:32:13;;;;;;;;;;;1.20;100.00;;;;;;5045762;28;20420;-68
2024/01/29 03:34:41;;;;;;;;;;;1.20;100.00;;;;;;5045246;28;19936;-68
2024/01/29 03:37:08;;;;;;;;;;;1.20;100.00;;;;;;5045670;28;19929;-68
2024/01/29 03:39:35;;;;;;;;;;;1.20;100.00;;;;;;5044641;28;19940;-68
2024/01/29 03:42:02;;;;;;;;;;;1.20;100.00;;;;;;5046338;28;19978;-68
2024/01/29 03:44:28;;;;;;;;;;;1.20;100.00;;;;;;5044613;28;20021;-68
2024/01/29 03:46:55;;;;;;;;;;;1.30;100.00;;;;;;5046077;28;19932;-68
2024/01/29 03:49:22;;;;;;;;;;;1.30;100.00;;;;;;5044972;28;20375;-68
2024/01/29 03:51:49;;;;;;;;;;;1.50;100.00;;;;;;5044596;28;19994;-68
2024/01/29 03:54:16;;;;;;;;;;;1.40;100.00;;;;;;5044194;28;19929;-68
2024/01/29 03:56:43;;;;;;;;;;;1.40;100.00;;;;;;5044295;28;19929;-68
2024/01/29 03:59:11;;;;;;;;;;;1.50;100.00;;;;;;5044823;28;20002;-68
2024/01/29 04:01:38;;;;;;;;;;;1.50;100.00;;;;;;5041923;28;20626;-68
2024/01/29 04:04:09;;;;;;;;;;;1.50;100.00;;;;;;5045232;28;19932;-68
2024/01/29 04:06:38;;;;;;;;;;;1.40;100.00;;;;;;5045419;28;19928;-68
2024/01/29 04:09:06;;;;;;;;;;;1.30;100.00;;;;;;5045759;28;20460;-68
2024/01/29 04:11:32;;;;;;;;;;;1.30;100.00;;;;;;5043040;28;19933;-68
2024/01/29 04:13:59;;;;;;;;;;;1.20;100.00;;;;;;5039866;28;19956;-68
2024/01/29 04:16:28;;;;;;;;;;;1.20;100.00;;;;;;5045408;28;19929;-68
2024/01/29 04:18:55;;;;;;;;;;;1.10;100.00;;;;;;5044498;28;19933;-68
2024/01/29 04:21:22;;;;;;;;;;;1.10;100.00;;;;;;5043660;28;20025;-68
2024/01/29 04:23:48;;;;;;;;;;;1.10;100.00;;;;;;5047989;28;19970;-68
2024/01/29 04:26:15;;;;;;;;;;;1.10;100.00;;;;;;5048803;28;19928;-68
2024/01/29 04:28:42;;;;;;;;;;;1.10;100.00;;;;;;5047773;28;19956;-68
2024/01/29 04:31:09;;;;;;;;;;;1.20;100.00;;;;;;5048889;28;19928;-68
2024/01/29 04:33:38;;;;;;;;;;;1.20;100.00;;;;;;5047757;28;19925;-68
2024/01/29 04:36:05;;;;;;;;;;;1.20;100.00;;;;;;5049328;28;20074;-68
2024/01/29 04:38:31;;;;;;;;;;;1.20;100.00;;;;;;5049562;28;19932;-68
2024/01/29 04:40:58;;;;;;;;;;;1.20;100.00;;;;;;5045275;28;19933;-68
2024/01/29 04:43:25;;;;;;;;;;;1.30;100.00;;;;;;5044509;28;20003;-68
2024/01/29 04:45:51;;;;;;;;;;;1.30;100.00;;;;;;5048563;28;19979;-68
2024/01/29 04:48:18;;;;;;;;;;;1.30;100.00;;;;;;5048262;28;19952;-68
2024/01/29 04:50:45;;;;;;;;;;;1.40;100.00;;;;;;5049346;28;20002;-68
2024/01/29 04:53:12;;;;;;;;;;;1.40;100.00;;;;;;5046471;28;20018;-68
2024/01/29 04:55:39;;;;;;;;;;;1.50;100.00;;;;;;5042364;28;20278;-68
2024/01/29 04:58:05;;;;;;;;;;;1.50;100.00;;;;;;5046894;28;20361;-68
2024/01/29 05:00:32;;;;;;;;;;;1.50;100.00;;;;;;5040185;28;19972;-68
2024/01/29 05:02:59;;;;;;;;;;;1.50;100.00;;;;;;5046365;28;19939;-68
2024/01/29 05:05:26;;;;;;;;;;;1.60;100.00;;;;;;5047323;28;20295;-68
2024/01/29 05:07:53;;;;;;;;;;;1.60;100.00;;;;;;5047742;28;19936;-68
2024/01/29 05:10:20;;;;;;;;;;;1.70;100.00;;;;;;5048640;28;19928;-68
2024/01/29 05:12:47;;;;;;;;;;;1.80;100.00;;;;;;5048132;28;19936;-68
2024/01/29 05:15:14;;;;;;;;;;;1.80;100.00;;;;;;5045178;28;19929;-68
2024/01/29 05:17:41;;;;;;;;;;;1.80;100.00;;;;;;5044124;28;20696;-68
2024/01/29 05:20:08;;;;;;;;;;;1.80;100.00;;;;;;5043950;28;19929;-68
2024/01/29 05:22:35;;;;;;;;;;;1.80;100.00;;;;;;5045898;28;20015;-68
2024/01/29 05:25:02;;;;;;;;;;;1.80;100.00;;;;;;5044439;28;20015;-68
2024/01/29 05:27:29;;;;;;;;;;;1.80;100.00;;;;;;5046236;28;20033;-68
2024/01/29 05:29:56;;;;;;;;;;;1.80;100.00;;;;;;5047173;28;20015;-68
2024/01/29 05:32:23;;;;;;;;;;;1.70;100.00;;;;;;5042533;28;19932;-68
2024/01/29 05:34:49;;;;;;;;;;;1.80;100.00;;;;;;5048793;28;19929;-68
2024/01/29 05:37:17;;;;;;;;;;;1.80;100.00;;;;;;5047145;28;19944;-70
2024/01/29 05:39:43;;;;;;;;;;;1.80;100.00;;;;;;5066992;28;19929;-70
2024/01/29 05:42:10;;;;;;;;;;;1.80;100.00;;;;;;5045677;28;19928;-70
2024/01/29 05:44:37;;;;;;;;;;;1.80;100.00;;;;;;5046995;28;19929;-70
2024/01/29 05:47:04;;;;;;;;;;;1.80;100.00;;;;;;5047060;28;20019;-70
2024/01/29 05:49:31;;;;;;;;;;;1.80;100.00;;;;;;5045747;28;19983;-69
2024/01/29 05:51:58;;;;;;;;;;;1.80;100.00;;;;;;5046226;28;19937;-69
2024/01/29 05:54:25;;;;;;;;;;;1.80;100.00;;;;;;5044984;28;19975;-69
2024/01/29 05:56:52;;;;;;;;;;;1.80;100.00;;;;;;5045569;28;20637;-68
2024/01/29 05:59:19;;;;;;;;;;;1.80;100.00;;;;;;5047294;28;19929;-68
2024/01/29 06:01:46;;;;;;;;;;;1.80;100.00;;;;;;5046321;28;19997;-68
2024/01/29 06:04:13;;;;;;;;;;;1.80;100.00;;;;;;5046940;28;20000;-68
2024/01/29 06:06:41;;;;;;;;;;;1.80;100.00;;;;;;5046685;28;19937;-67
2024/01/29 06:09:11;;;;;;;;;;;1.80;100.00;;;;;;5048044;28;19933;-69
2024/01/29 06:11:38;;;;;;;;;;;1.70;100.00;;;;;;5046136;28;19933;-70
2024/01/29 06:14:04;;;;;;;;;;;1.70;100.00;;;;;;5046927;28;19937;-70
2024/01/29 06:16:32;;;;;;;;;;;1.70;100.00;;;;;;5047851;28;20699;-70
2024/01/29 06:19:00;;;;;;;;;;;1.70;100.00;;;;;;5045213;28;19939;-70
2024/01/29 06:21:27;;;;;;;;;;;1.70;100.00;;;;;;5047332;28;20501;-72
2024/01/29 06:23:54;;;;;;;;;;;1.70;100.00;;;;;;5045693;28;20500;-70
2024/01/29 06:26:21;;;;;;;;;;;1.70;100.00;;;;;;5045868;28;19932;-75
2024/01/29 06:28:48;;;;;;;;;;;1.70;100.00;;;;;;5045398;28;19936;-70
2024/01/29 06:31:15;;;;;;;;;;;1.60;100.00;;;;;;5045981;28;19929;-69
2024/01/29 06:33:41;;;;;;;;;;;1.70;100.00;;;;;;5046272;28;20036;-69
2024/01/29 06:36:14;;;;;;;;;;;1.70;100.00;;;;;;5046317;28;19932;-68
2024/01/29 06:38:41;;;;;;;;;;;1.70;100.00;;;;;;5041529;28;19936;-69
2024/01/29 06:41:07;;;;;;;;;;;1.70;100.00;;;;;;5043185;28;19975;-70
2024/01/29 06:43:34;;;;;;;;;;;1.70;100.00;;;;;;5041582;28;19932;-70
2024/01/29 06:46:01;;;;;;;;;;;1.60;100.00;;;;;;5042477;28;19929;-70
2024/01/29 06:48:28;;;;;;;;;;;1.60;100.00;;;;;;5044770;28;19929;-70
2024/01/29 06:50:55;;;;;;;;;;;1.50;100.00;;;;;;5046693;28;20043;-70
2024/01/29 06:53:22;;;;;;;;;;;1.50;100.00;;;;;;5046722;28;19939;-70
2024/01/29 06:55:48;;;;;;;;;;;1.50;100.00;;;;;;5047132;28;19971;-70
2024/01/29 06:58:15;;;;;;;;;;;1.40;100.00;;;;;;5046650;28;19928;-69
2024/01/29 07:00:42;;;;;;;;;;;1.40;100.00;;;;;;5046948;28;19925;-69
2024/01/29 07:03:09;;;;;;;;;;;1.40;100.00;;;;;;5045544;28;20015;-70
2024/01/29 07:05:36;;;;;;;;;;;1.40;100.00;;;;;;5046899;28;20269;-70
2024/01/29 07:08:03;;;;;;;;;;;1.40;100.00;;;;;;5045056;28;20389;-70
2024/01/29 07:10:30;;;;;;;;;;;1.40;100.00;;;;;;5045322;28;19928;-70
2024/01/29 07:12:57;;;;;;;;;;;1.40;100.00;;;;;;5045536;28;20046;-70
2024/01/29 07:15:24;;;;;;;;;;;1.40;100.00;;;;;;5046933;28;19929;-70
2024/01/29 07:17:51;;;;;;;;;;;1.40;100.00;;;;;;5044835;28;19925;-70
2024/01/29 07:20:18;;;;;;;;;;;1.40;100.00;;;;;;5040732;28;19939;-70
2024/01/29 07:22:46;;;;;;;;;;;1.40;100.00;;;;;;5046837;28;19936;-70
2024/01/29 07:25:13;;;;;;;;;;;1.50;100.00;;;;;;5046152;28;19936;-70
2024/01/29 07:27:39;;;;;;;;;;;1.50;100.00;;;;;;5040677;28;20019;-70
2024/01/29 07:30:06;;;;;;;;;;;1.60;100.00;;;;;;5045391;28;19979;-70
2024/01/29 07:32:33;;;;;;;;;;;1.60;100.00;;;;;;5046424;28;20324;-69
2024/01/29 07:35:01;;;;;;;;;;;1.70;100.00;;;;;;5046024;28;19928;-69
2024/01/29 07:37:28;;;;;;;;;;;1.80;100.00;;;;;;5045640;28;19925;-69
2024/01/29 07:39:55;;;;;;;;;;;1.90;100.00;;;;;;5045088;28;19928;-69
2024/01/29 07:42:22;;;;;;;;;;;1.90;100.00;;;;;;5045839;28;20047;-69
2024/01/29 07:44:50;;;;;;;;;;;1.90;100.00;;;;;;5045767;28;19951;-70
2024/01/29 07:47:16;;;;;;;;;;;1.90;100.00;;;;;;5045946;28;19932;-70
2024/01/29 07:49:45;;;;;;;;;;;2.00;100.00;;;;;;5046280;28;19928;-70
2024/01/29 07:52:12;;;;;;;;;;;1.90;100.00;;;;;;5043559;28;19979;-70
2024/01/29 07:54:40;;;;;;;;;;;1.90;100.00;;;;;;5044794;28;19932;-70
2024/01/29 07:57:07;;;;;;;;;;;1.90;100.00;;;;;;5061288;28;19940;-70
2024/01/29 07:59:34;;;;;;;;;;;2.00;100.00;;;;;;5046507;28;20015;-70
2024/01/29 08:02:00;;;;;;;;;;;2.10;100.00;;;;;;5043640;28;19936;-70
2024/01/29 08:04:28;;;;;;;;;;;2.10;100.00;;;;;;5046079;28;19929;-71
2024/01/29 08:06:55;;;;;;;;;;;2.20;100.00;;;;;;5046342;28;19929;-70
2024/01/29 08:09:22;;;;;;;;;;;2.30;100.00;;;;;;5044462;28;20023;-70
2024/01/29 08:11:48;;;;;;;;;;;2.30;100.00;;;;;;5044942;28;20400;-70
2024/01/29 08:14:15;;;;;;;;;;;2.30;100.00;;;;;;5045909;28;20572;-70
2024/01/29 08:16:42;;;;;;;;;;;2.30;100.00;;;;;;5046086;28;19971;-67
2024/01/29 08:19:09;;;;;;;;;;;2.40;100.00;;;;;;5042786;28;19928;-67
2024/01/29 08:21:36;;;;;;;;;;;2.40;100.00;;;;;;5044351;28;19924;-68
2024/01/29 08:24:03;;;;;;;;;;;2.50;100.00;;;;;;5045749;28;19987;-67
2024/01/29 08:26:30;;;;;;;;;;;2.50;100.00;;;;;;5045455;28;19964;-67
2024/01/29 08:28:58;;;;;;;;;;;2.60;100.00;;;;;;5075909;28;20570;-67
2024/01/29 08:31:24;;;;;;;;;;;2.60;99.40;;;;;;5073106;28;19983;-67
2024/01/29 08:33:51;;;;;;;;;;;2.70;98.90;;;;;;5043656;28;19929;-67
2024/01/29 08:36:21;;;;;;;;;;;2.80;98.30;;;;;;5040439;28;20576;-67
2024/01/29 08:38:48;;;;;;;;;;;2.80;97.70;;;;;;5045703;28;19982;-67
2024/01/29 08:41:15;;;;;;;;;;;2.80;97.00;;;;;;5070165;28;20313;-67
2024/01/29 08:43:42;;;;;;;;;;;2.90;98.70;;;;;;5045523;28;19935;-67
2024/01/29 08:46:09;;;;;;;;;;;2.90;96.10;;;;;;5043875;28;19996;-67
2024/01/29 08:48:36;;;;;;;;;;;3.00;95.10;;;;;;5039267;28;19925;-67
2024/01/29 08:51:03;;;;;;;;;;;3.00;95.60;;;;;;5045485;28;20029;-67
2024/01/29 08:53:30;;;;;;;;;;;3.10;94.50;;;;;;5045558;28;19929;-67
2024/01/29 08:55:57;;;;;;;;;;;3.20;94.70;;;;;;5045825;28;19929;-67
2024/01/29 08:58:24;;;;;;;;;;;3.20;93.60;;;;;;5044324;28;19929;-67
2024/01/29 09:00:54;;;;;;;;;;;3.30;93.10;;;;;;5045168;28;20472;-67
2024/01/29 09:03:22;;;;;;;;;;;3.30;92.70;;;;;;5043661;28;19935;-68
2024/01/29 09:05:49;;;;;;;;;;;3.50;90.60;;;;;;5045724;28;20391;-67
2024/01/29 09:08:15;;;;;;;;;;;3.50;93.10;;;;;;5045564;28;19929;-67
2024/01/29 09:10:45;;;;;;;;;;;3.60;90.40;;;;;;5046703;28;19929;-68
2024/01/29 09:13:14;;;;;;;;;;;3.70;90.70;;;;;;5047332;28;20335;-67
2024/01/29 09:15:41;;;;;;;;;;;3.70;88.40;;;;;;5042168;28;19932;-67
2024/01/29 09:18:08;;;;;;;;;;;3.80;86.30;;;;;;5047536;28;19979;-67
2024/01/29 09:20:35;;;;;;;;;;;3.90;87.80;;;;;;5047022;28;19932;-68
2024/01/29 09:23:02;;;;;;;;;;;3.90;86.60;;;;;;5043077;28;20336;-67
2024/01/29 09:25:29;;;;;;;;;;;4.10;85.20;;;;;;5048825;28;19982;-67
2024/01/29 09:27:55;;;;;;;;;;;4.20;83.90;;;;;;5049007;28;19978;-67
2024/01/29 09:30:22;;;;;;;;;;;4.30;82.60;;;;;;5048526;28;19929;-67
2024/01/29 09:32:49;;;;;;;;;;;4.40;83.40;;;;;;5048757;28;19936;-68
2024/01/29 09:35:16;;;;;;;;;;;4.40;80.20;;;;;;5048472;28;19990;-67
2024/01/29 09:37:44;;;;;;;;;;;4.60;80.50;;;;;;5048396;28;20301;-67
2024/01/29 09:40:12;;;;;;;;;;;4.80;81.50;;;;;;5047735;28;19948;-67
2024/01/29 09:42:45;;;;;;;;;;;4.90;80.20;;;;;;5047657;28;20361;-67
2024/01/29 09:45:13;;;;;;;;;;;5.00;75.90;;;;;;5048894;28;19936;-67
2024/01/29 09:47:40;;;;;;;;;;;5.30;73.00;;;;;;5048371;28;19932;-68
2024/01/29 09:50:08;;;;;;;;;;;5.40;73.40;;;;;;5048511;28;19928;-69
2024/01/29 09:52:37;;;;;;;;;;;5.50;71.20;;;;;;5047567;28;19935;-70
2024/01/29 09:55:07;;;;;;;;;;;5.60;69.60;;;;;;5048359;28;19928;-70
2024/01/29 09:57:35;;;;;;;;;;;5.70;69.80;;;;;;5043693;28;19929;-70
2024/01/29 10:00:02;;;;;;;;;;;5.90;70.00;;;;;;5048575;28;19928;-70
2024/01/29 10:02:32;;;;;;;;;;;6.00;67.40;;;;;;5044770;28;19937;-70
2024/01/29 10:04:59;;;;;;;;;;;6.00;66.80;;;;;;5047861;28;20254;-70
2024/01/29 10:07:26;;;;;;;;;;;6.10;67.80;;;;;;5047350;28;19924;-70
2024/01/29 10:09:53;;;;;;;;;;;6.10;66.20;;;;;;5048088;28;19936;-70
2024/01/29 10:12:23;;;;;;;;;;;6.20;66.50;;;;;;5045405;28;19928;-70
2024/01/29 10:14:55;;;;;;;;;;;6.30;65.70;;;;;;5047349;28;19936;-70
2024/01/29 10:17:23;;;;;;;;;;;6.30;65.50;;;;;;5045422;28;20003;-70
2024/01/29 10:19:50;;;;;;;;;;;6.40;65.90;;;;;;5046701;28;19980;-70
2024/01/29 10:22:17;;;;;;;;;;;6.60;64.70;;;;;;5047418;28;19929;-70
2024/01/29 10:24:44;;;;;;;;;;;6.80;63.40;;;;;;5045501;28;20552;-70
2024/01/29 10:27:11;;;;;;;;;;;7.00;64.40;;;;;;5047604;28;20006;-70
2024/01/29 10:29:47;;;;;;;;;;;7.30;64.70;;;;;;5046601;28;19929;-70
2024/01/29 10:32:14;;;;;;;;;;;7.70;61.90;;;;;;5043740;28;19929;-71
2024/01/29 10:34:41;;;;;;;;;;;7.80;59.80;;;;;;5038730;28;19924;-70
2024/01/29 10:37:09;;;;;;;;;;;7.70;60.70;;;;;;5046699;28;19928;-70
2024/01/29 10:39:38;;;;;;;;;;;7.70;60.30;;;;;;5043721;28;20039;-70
2024/01/29 10:42:18;;;;;;;;;;;7.80;60.20;;;;;;5046377;28;19932;-70
2024/01/29 10:44:47;;;;;;;;;;;7.60;60.60;;;;;;5039356;28;19937;-70
2024/01/29 10:47:25;;;;;;;;;;;8.00;61.40;;;;;;5046168;28;19975;-70
2024/01/29 10:49:53;;;;;;;;;;;8.20;59.50;;;;;;5043415;28;20004;-70
2024/01/29 10:52:21;;;;;;;;;;;8.20;60.80;;;;;;5044999;28;19943;-70
2024/01/29 10:54:48;;;;;;;;;;;8.50;58.90;;;;;;5046696;28;20014;-70
2024/01/29 10:57:15;;;;;;;;;;;8.90;57.20;;;;;;5045165;28;19935;-71
2024/01/29 10:59:43;;;;;;;;;;;8.90;56.50;;;;;;5040810;28;20060;-70
2024/01/29 11:02:16;;;;;;;;;;;9.30;55.70;;;;;;5044795;28;19932;-71
2024/01/29 11:04:43;;;;;;;;;;;9.80;56.00;;;;;;5041163;28;20288;-71
2024/01/29 11:07:18;;;;;;;;;;;10.30;54.60;;;;;;5045541;28;20015;-70
2024/01/29 11:09:53;;;;;;;;;;;10.50;53.90;;;;;;5045945;28;20024;-70
2024/01/29 11:12:20;;;;;;;;;;;10.60;53.10;;;;;;5044977;28;20784;-71
2024/01/29 11:14:59;;;;;;;;;;;10.30;53.70;;;;;;5046584;28;19936;-71
2024/01/29 11:17:27;;;;;;;;;;;9.80;52.70;;;;;;5045720;28;19950;-70
2024/01/29 11:19:58;;;;;;;;;;;9.60;54.80;;;;;;5046434;28;19928;-70
2024/01/29 11:22:33;;;;;;;;;;;9.60;56.30;;;;;;5046486;28;20666;-70
2024/01/29 11:25:04;;;;;;;;;;;9.50;56.50;;;;;;5046245;28;20027;-71
2024/01/29 11:27:31;;;;;;;;;;;9.70;55.40;;;;;;5043259;28;19929;-71
2024/01/29 11:29:57;;;;;;;;;;;9.90;55.40;;;;;;5045931;28;20301;-70
2024/01/29 11:32:29;;;;;;;;;;;10.00;54.90;;;;;;5046044;28;20686;-71
2024/01/29 11:35:07;;;;;;;;;;;9.90;56.30;;;;;;5046054;28;19929;-71
2024/01/29 11:37:33;;;;;;;;;;;9.80;55.40;;;;;;5045413;28;20381;-70
2024/01/29 11:40:00;;;;;;;;;;;9.80;55.40;;;;;;5046819;28;19933;-70
2024/01/29 11:42:27;;;;;;;;;;;9.90;56.10;;;;;;5044680;28;20452;-71
2024/01/29 11:44:54;;;;;;;;;;;10.00;55.90;;;;;;5045559;28;19988;-70
2024/01/29 11:47:22;;;;;;;;;;;9.80;55.60;;;;;;5046182;28;19988;-70
2024/01/29 11:49:50;;;;;;;;;;;9.80;54.80;;;;;;5046211;28;19928;-71
2024/01/29 11:52:16;;;;;;;;;;;9.70;55.90;;;;;;5044328;28;19978;-70
2024/01/29 11:54:43;;;;;;;;;;;10.00;57.00;;;;;;5045961;28;19936;-71
2024/01/29 11:57:10;;;;;;;;;;;10.10;56.20;;;;;;5043109;28;19933;-70
2024/01/29 11:59:45;;;;;;;;;;;10.00;55.70;;;;;;5046507;28;19933;-71
2024/01/29 12:02:12;;;;;;;;;;;10.10;56.20;;;;;;5043107;28;20047;-70
2024/01/29 12:04:38;;;;;;;;;;;10.10;55.20;;;;;;5045022;28;19935;-70
2024/01/29 12:07:05;;;;;;;;;;;10.10;56.50;;;;;;5045898;28;19956;-70
2024/01/29 12:09:36;;;;;;;;;;;10.20;56.80;;;;;;5044389;28;20313;-71
2024/01/29 12:12:07;;;;;;;;;;;10.30;57.20;;;;;;5044493;28;19929;-71
2024/01/29 12:14:33;;;;;;;;;;;10.50;55.00;;;;;;5046120;28;19968;-71
2024/01/29 12:17:01;;;;;;;;;;;10.70;55.50;;;;;;5044169;28;19946;-71
2024/01/29 12:19:28;;;;;;;;;;;10.60;54.30;;;;;;5045619;28;19964;-70
2024/01/29 12:21:55;;;;;;;;;;;10.60;56.80;;;;;;5045103;28;19948;-71
2024/01/29 12:24:22;;;;;;;;;;;10.80;56.40;;;;;;5041096;28;19929;-71
2024/01/29 12:26:50;;;;;;;;;;;11.20;54.30;;;;;;5045930;28;20280;-70
2024/01/29 12:29:16;;;;;;;;;;;11.30;53.20;;;;;;5044516;28;19990;-70
2024/01/29 12:31:43;;;;;;;;;;;11.30;55.00;;;;;;5038285;28;19929;-70
2024/01/29 12:34:18;;;;;;;;;;;11.40;54.70;;;;;;5045584;28;20388;-71
2024/01/29 12:36:49;;;;;;;;;;;11.30;53.70;;;;;;5038086;28;19929;-71
2024/01/29 12:39:16;;;;;;;;;;;11.20;56.10;;;;;;5044206;28;19929;-70
2024/01/29 12:41:43;;;;;;;;;;;11.30;56.20;;;;;;5041455;28;20354;-70
2024/01/29 12:44:11;;;;;;;;;;;11.40;55.40;;;;;;5048385;28;19932;-70
2024/01/29 12:46:38;;;;;;;;;;;11.20;55.30;;;;;;5048779;28;19928;-70
2024/01/29 12:49:05;;;;;;;;;;;11.10;56.30;;;;;;5047912;28;20043;-70
2024/01/29 12:51:32;;;;;;;;;;;11.20;54.80;;;;;;5048541;28;19928;-70
2024/01/29 12:53:59;;;;;;;;;;;11.40;56.70;;;;;;5047710;28;19928;-71
2024/01/29 12:56:27;;;;;;;;;;;11.80;55.80;;;;;;5048727;28;19972;-70
2024/01/29 12:58:55;;;;;;;;;;;12.30;54.00;;;;;;5049128;28;19929;-70
2024/01/29 13:01:22;;;;;;;;;;;12.90;52.40;;;;;;5049115;28;19929;-70
2024/01/29 13:03:48;;;;;;;;;;;13.50;52.50;;;;;;5048960;28;19929;-70
2024/01/29 13:06:15;;;;;;;;;;;13.80;50.50;;;;;;5047483;28;19936;-71
2024/01/29 13:08:44;;;;;;;;;;;14.10;49.80;;;;;;5038181;28;22183;-70
2024/01/29 13:11:11;;;;;;;;;;;14.50;49.50;;;;;;5048832;28;19932;-70
2024/01/29 13:13:38;;;;;;;;;;;15.00;49.70;;;;;;5048535;28;19967;-70
2024/01/29 13:16:05;;;;;;;;;;;14.90;50.00;;;;;;5049285;28;19928;-70
2024/01/29 13:18:32;;;;;;;;;;;14.90;48.50;;;;;;5048483;28;19935;-70
2024/01/29 13:20:59;;;;;;;;;;;15.00;49.90;;;;;;5046755;28;19938;-70
2024/01/29 13:23:26;;;;;;;;;;;15.20;48.50;;;;;;5048970;28;19932;-70
2024/01/29 13:25:53;;;;;;;;;;;14.90;49.00;;;;;;5048465;28;19941;-70
2024/01/29 13:28:20;;;;;;;;;;;14.60;49.50;;;;;;5046761;28;19929;-70
2024/01/29 13:30:49;;;;;;;;;;;14.20;50.20;;;;;;5048752;28;19935;-70
2024/01/29 13:33:17;;;;;;;;;;;14.00;49.10;;;;;;5041710;28;19995;-70
2024/01/29 13:35:43;;;;;;;;;;;13.50;49.90;;;;;;5045998;28;20019;-70
2024/01/29 13:38:10;;;;;;;;;;;13.00;51.70;;;;;;5043976;28;20018;-70
2024/01/29 13:40:37;;;;;;;;;;;12.80;51.60;;;;;;5048301;28;19998;-70
2024/01/29 13:43:04;;;;;;;;;;;12.30;52.60;;;;;;5047457;28;19929;-70
2024/01/29 13:45:31;;;;;;;;;;;12.10;53.50;;;;;;5047995;28;19935;-70
2024/01/29 13:47:58;;;;;;;;;;;12.00;54.00;;;;;;5047474;28;19948;-70
2024/01/29 13:50:25;;;;;;;;;;;11.90;54.30;;;;;;5047968;28;19928;-70
2024/01/29 13:52:52;;;;;;;;;;;11.50;56.30;;;;;;5044513;28;19932;-70
2024/01/29 13:55:19;;;;;;;;;;;11.40;56.60;;;;;;5048206;28;19929;-70
2024/01/29 13:57:46;;;;;;;;;;;11.10;56.10;;;;;;5048107;28;19924;-70
2024/01/29 14:00:14;;;;;;;;;;;10.80;57.80;;;;;;5048146;28;19998;-70
2024/01/29 14:02:41;;;;;;;;;;;10.50;58.30;;;;;;5048067;28;19929;-70
2024/01/29 14:05:09;;;;;;;;;;;10.30;58.40;;;;;;5044250;28;19991;-69
2024/01/29 14:07:38;;;;;;;;;;;10.10;61.20;;;;;;5047708;28;19995;-70
2024/01/29 14:10:05;;;;;;;;;;;9.90;58.80;;;;;;5048146;28;19936;-69
2024/01/29 14:12:32;;;;;;;;;;;9.60;58.50;;;;;;5046744;28;20006;-69
2024/01/29 14:15:01;;;;;;;;;;;9.40;60.90;;;;;;5038170;28;20496;-69
2024/01/29 14:17:30;;;;;;;;;;;9.30;61.10;;;;;;5048120;28;20322;-70
2024/01/29 14:19:57;;;;;;;;;;;9.10;62.60;;;;;;5048543;28;20300;-69
2024/01/29 14:22:26;;;;;;;;;;;9.00;63.60;;;;;;5045134;28;19924;-69